^^
Saratoga-Weather Station Historical Data
Daily Summary for October 02, 2022 Units:  Metric    English   Both
Daily Weekly Monthly Yearly Custom
  High: Low: Average:
Temperature: 12.9 °C 12.5 °C 12.8 °C
Dew Point: 11.8 °C 11.3 °C 11.6 °C
Humidity: 94% 91% 93%
Wind Speed: 9.7km/h 0km/h 3km/h
Wind Gust: 14.5km/h - -
Wind- - WSW
Pressure: 1018.3 hPa 1016.9 hPa -
Precipitation: 0.0 mm    
Historical Graphs
 
 
Tabular Data for October 02, 2022
Time Temperature Dew Point Pressure Wind Wind Speed Wind Gust Humidity Rainfall Rate (Hourly) solar
00:01 12.8 °C 11.7 °C 1016.9 hPa West 1.4 km/h 6.4 km/h 93% 1.0 mm 0 W/m2
00:06 12.8 °C 11.7 °C 1016.9 hPa West 1.4 km/h 4.8 km/h 93% 1.0 mm 0 W/m2
00:11 12.8 °C 11.7 °C 1017.3 hPa NNW 1.4 km/h 6.4 km/h 93% 0.8 mm 0 W/m2
00:16 12.8 °C 11.7 °C 1017.3 hPa Calm   3.2 km/h 93% 0.5 mm 0 W/m2
00:21 12.7 °C 11.6 °C 1017.3 hPa NW 4.7 km/h 6.4 km/h 93% 0.2 mm 0 W/m2
00:26 12.6 °C 11.5 °C 1017.3 hPa Calm     93% 0.0 mm 0 W/m2
00:31 12.5 °C 11.4 °C 1017.3 hPa WNW 6.4 km/h 6.4 km/h 93% 0.0 mm 0 W/m2
00:36 12.5 °C 11.4 °C 1017.3 hPa Calm   3.2 km/h 93% 0.0 mm 0 W/m2
00:41 12.5 °C 11.6 °C 1017.6 hPa West 3.2 km/h 6.4 km/h 94% 0.0 mm 0 W/m2
00:46 12.6 °C 11.7 °C 1017.6 hPa WSW 6.4 km/h 11.3 km/h 94% 0.0 mm 0 W/m2
00:52 12.6 °C 11.7 °C 1017.6 hPa NW 3.2 km/h 6.4 km/h 94% 0.0 mm 0 W/m2
00:57 12.6 °C 11.7 °C 1017.6 hPa West 6.4 km/h 11.3 km/h 94% 0.0 mm 0 W/m2
01:02 12.7 °C 11.8 °C 1017.6 hPa WSW 7.9 km/h 11.3 km/h 94% 0.0 mm 0 W/m2
01:07 12.8 °C 11.7 °C 1017.6 hPa WNW 1.4 km/h 9.7 km/h 93% 0.0 mm 0 W/m2
01:12 12.8 °C 11.7 °C 1017.6 hPa West 4.7 km/h 9.7 km/h 93% 0.0 mm 0 W/m2
01:17 12.9 °C 11.8 °C 1018.0 hPa SW 9.7 km/h 14.5 km/h 93% 0.0 mm 0 W/m2
01:22 12.9 °C 11.8 °C 1018.0 hPa West 1.4 km/h 12.9 km/h 93% 0.0 mm 0 W/m2
01:27 12.9 °C 11.8 °C 1018.0 hPa WNW 4.7 km/h 14.5 km/h 93% 0.0 mm 0 W/m2
01:32 12.9 °C 11.8 °C 1018.0 hPa WNW 3.2 km/h 6.4 km/h 93% 0.0 mm 0 W/m2
01:37 12.9 °C 11.6 °C 1018.0 hPa WSW 1.4 km/h 12.9 km/h 92% 0.0 mm 0 W/m2
01:42 12.9 °C 11.6 °C 1018.0 hPa West 6.4 km/h 14.5 km/h 92% 0.0 mm 0 W/m2
01:47 12.9 °C 11.6 °C 1018.0 hPa SSE 1.4 km/h 4.8 km/h 92% 0.0 mm 0 W/m2
01:52 12.9 °C 11.6 °C 1018.0 hPa WSW 1.4 km/h 9.7 km/h 92% 0.0 mm 0 W/m2
01:57 12.9 °C 11.6 °C 1018.0 hPa Calm   4.8 km/h 92% 0.0 mm 0 W/m2
02:02 12.9 °C 11.6 °C 1018.0 hPa SW 6.4 km/h 11.3 km/h 92% 0.0 mm 0 W/m2
02:07 12.9 °C 11.6 °C 1018.3 hPa NW 1.4 km/h 3.2 km/h 92% 0.0 mm 0 W/m2
02:12 12.9 °C 11.6 °C 1018.0 hPa WSW 1.4 km/h 3.2 km/h 92% 0.0 mm 0 W/m2
02:17 12.9 °C 11.5 °C 1018.0 hPa Calm   3.2 km/h 91% 0.0 mm 0 W/m2
02:22 12.8 °C 11.5 °C 1018.3 hPa West 3.2 km/h 4.8 km/h 92% 0.0 mm 0 W/m2
02:27 12.8 °C 11.5 °C 1018.3 hPa WSW 3.2 km/h 3.2 km/h 92% 0.0 mm 0 W/m2
02:32 12.8 °C 11.5 °C 1018.3 hPa SW 1.4 km/h 1.6 km/h 92% 0.0 mm 0 W/m2
02:37 12.7 °C 11.4 °C 1018.3 hPa NW 1.4 km/h 6.4 km/h 92% 0.0 mm 0 W/m2
02:42 12.7 °C 11.4 °C 1018.3 hPa WNW 1.4 km/h 6.4 km/h 92% 0.0 mm 0 W/m2
02:47 12.7 °C 11.4 °C 1018.3 hPa West 1.4 km/h 3.2 km/h 92% 0.0 mm 0 W/m2
02:52 12.7 °C 11.4 °C 1018.3 hPa Calm   3.2 km/h 92% 0.0 mm 0 W/m2
02:57 12.7 °C 11.4 °C 1018.3 hPa SSW 4.7 km/h 9.7 km/h 92% 0.0 mm 0 W/m2
03:02 12.6 °C 11.3 °C 1018.3 hPa WNW 4.7 km/h 4.8 km/h 92% 0.0 mm 0 W/m2
03:07 12.6 °C 11.3 °C 1018.3 hPa SSE 3.2 km/h 8 km/h 92% 0.0 mm 0 W/m2
03:12 12.6 °C 11.3 °C 1018.3 hPa ENE 4.7 km/h 4.8 km/h 92% 0.0 mm 0 W/m2
Juneau County Weather
Compliments of Weather Underground - 2 mb